Time;durP1;ratioP1;P1;durP2;ratioP2;P2;SDS_P1;SDS_P2;PMS_P1;PMS_P2;Temp;Humidity;BMP_temperature;BMP_pressure;BME280_temperature;BME280_humidity;BME280_pressure;Samples;Min_cycle;Max_cycle;Signal;HPM_P1;HPM_P2
2023/10/18 00:00:32;;;;;;;56.00;22.80;;;;;;;;;;5070721;28;20055;-60
2023/10/18 00:03:01;;;;;;;58.87;23.47;;;;;;;;;;5070568;28;20053;-60
2023/10/18 00:05:28;;;;;;;59.80;22.57;;;;;;;;;;5070562;28;20044;-60
2023/10/18 00:07:57;;;;;;;63.33;25.17;;;;;;;;;;5070424;28;20414;-60
2023/10/18 00:10:23;;;;;;;68.47;27.13;;;;;;;;;;5070515;28;20036;-60
2023/10/18 00:12:52;;;;;;;74.07;25.63;;;;;;;;;;5070827;28;20086;-60
2023/10/18 00:15:18;;;;;;;73.30;25.87;;;;;;;;;;5070065;28;20087;-60
2023/10/18 00:17:44;;;;;;;67.33;23.53;;;;;;;;;;5069680;28;20048;-60
2023/10/18 00:20:13;;;;;;;64.70;24.43;;;;;;;;;;5070141;28;20044;-60
2023/10/18 00:22:40;;;;;;;79.30;28.93;;;;;;;;;;5070460;28;20045;-60
2023/10/18 00:25:06;;;;;;;81.37;27.47;;;;;;;;;;5069947;28;20136;-60
2023/10/18 00:27:33;;;;;;;78.77;25.63;;;;;;;;;;5070429;28;20174;-60
2023/10/18 00:29:59;;;;;;;95.17;28.80;;;;;;;;;;5069926;28;20044;-60
2023/10/18 00:32:26;;;;;;;78.43;27.47;;;;;;;;;;5069849;28;20109;-60
2023/10/18 00:34:54;;;;;;;76.43;29.53;;;;;;;;;;5070143;28;20440;-60
2023/10/18 00:37:21;;;;;;;73.40;28.10;;;;;;;;;;5069918;28;20151;-60
2023/10/18 00:39:47;;;;;;;91.17;30.07;;;;;;;;;;5069545;28;20041;-60
2023/10/18 00:45:40;;;;;;;91.60;30.67;;;;;;;;;;5069465;28;20045;-60
2023/10/18 00:48:06;;;;;;;73.83;29.60;;;;;;;;;;5069877;28;20051;-60
2023/10/18 00:50:34;;;;;;;89.60;31.33;;;;;;;;;;5059060;28;20684;-60
2023/10/18 00:53:01;;;;;;;89.37;31.97;;;;;;;;;;5049421;28;20156;-60
2023/10/18 00:55:27;;;;;;;87.37;30.17;;;;;;;;;;5050006;28;20076;-60
2023/10/18 00:57:53;;;;;;;106.77;36.73;;;;;;;;;;5049590;28;20106;-60
2023/10/18 01:00:19;;;;;;;107.17;34.10;;;;;;;;;;5049557;28;20048;-59
2023/10/18 01:02:49;;;;;;;105.33;33.57;;;;;;;;;;5048532;28;20049;-60
2023/10/18 01:05:15;;;;;;;103.63;35.40;;;;;;;;;;5049458;28;20072;-60
2023/10/18 01:07:42;;;;;;;113.57;37.83;;;;;;;;;;5049786;28;20049;-60
2023/10/18 01:10:09;;;;;;;113.07;37.67;;;;;;;;;;5049473;28;20049;-60
2023/10/18 01:12:37;;;;;;;107.80;35.97;;;;;;;;;;5049492;28;20045;-60
2023/10/18 01:15:06;;;;;;;110.60;36.93;;;;;;;;;;5048991;28;20053;-60
2023/10/18 01:17:34;;;;;;;107.43;35.50;;;;;;;;;;5048968;28;20053;-60
2023/10/18 01:20:12;;;;;;;115.13;37.10;;;;;;;;;;5048913;28;20602;-60
2023/10/18 01:22:38;;;;;;;127.67;39.27;;;;;;;;;;5049075;28;20136;-60
2023/10/18 01:25:05;;;;;;;118.40;36.57;;;;;;;;;;5049212;28;20132;-60
2023/10/18 01:27:31;;;;;;;122.50;40.17;;;;;;;;;;5062193;28;20052;-60
2023/10/18 01:29:57;;;;;;;115.50;39.47;;;;;;;;;;5056236;28;20036;-60
2023/10/18 01:32:28;;;;;;;103.73;36.17;;;;;;;;;;5068342;28;20509;-59
2023/10/18 01:34:55;;;;;;;115.80;40.23;;;;;;;;;;5062457;28;20059;-60
2023/10/18 01:37:22;;;;;;;133.93;41.77;;;;;;;;;;5048825;28;20065;-60
2023/10/18 01:39:52;;;;;;;101.00;40.37;;;;;;;;;;5049019;28;20111;-60
2023/10/18 01:42:21;;;;;;;143.63;44.73;;;;;;;;;;5048401;28;20107;-60
2023/10/18 01:44:48;;;;;;;130.90;40.90;;;;;;;;;;5054466;28;20066;-59
2023/10/18 01:47:14;;;;;;;105.57;37.87;;;;;;;;;;5066977;28;20524;-60
2023/10/18 01:49:44;;;;;;;123.03;43.30;;;;;;;;;;5068923;28;20060;-60
2023/10/18 01:52:12;;;;;;;126.10;42.10;;;;;;;;;;5068550;28;20048;-60
2023/10/18 01:54:38;;;;;;;123.17;41.77;;;;;;;;;;5068943;28;20058;-60
2023/10/18 01:57:06;;;;;;;139.93;44.93;;;;;;;;;;5068577;28;20066;-60
2023/10/18 01:59:34;;;;;;;132.70;43.77;;;;;;;;;;5068608;28;20048;-60
2023/10/18 02:02:05;;;;;;;148.73;44.43;;;;;;;;;;5068564;28;20054;-60
2023/10/18 02:04:36;;;;;;;127.17;43.10;;;;;;;;;;5066614;28;20608;-60
2023/10/18 02:07:02;;;;;;;134.13;42.40;;;;;;;;;;5068669;28;20052;-60
2023/10/18 02:09:47;;;;;;;118.97;43.33;;;;;;;;;;5068569;28;20041;-60
2023/10/18 02:12:13;;;;;;;166.47;47.77;;;;;;;;;;5067830;28;20055;-60
2023/10/18 02:14:39;;;;;;;155.10;47.57;;;;;;;;;;5068703;28;20032;-60
2023/10/18 02:17:09;;;;;;;141.60;44.77;;;;;;;;;;5068160;28;20043;-60
2023/10/18 02:19:37;;;;;;;125.67;42.77;;;;;;;;;;5068354;28;20599;-60
2023/10/18 02:22:07;;;;;;;115.03;42.43;;;;;;;;;;5068043;28;20048;-60
2023/10/18 02:24:33;;;;;;;159.43;49.47;;;;;;;;;;5068221;28;20048;-60
2023/10/18 02:27:00;;;;;;;136.53;44.63;;;;;;;;;;5068294;28;20052;-60
2023/10/18 02:29:35;;;;;;;157.30;48.33;;;;;;;;;;5068427;28;20542;-60
2023/10/18 02:32:04;;;;;;;115.07;43.80;;;;;;;;;;5068403;28;20071;-60
2023/10/18 02:34:34;;;;;;;157.83;47.07;;;;;;;;;;5062543;28;20122;-60
2023/10/18 02:37:01;;;;;;;134.33;45.17;;;;;;;;;;5047994;28;20069;-60
2023/10/18 02:39:33;;;;;;;126.63;42.20;;;;;;;;;;5048655;28;20052;-60
2023/10/18 02:41:59;;;;;;;174.05;49.25;;;;;;;;;;5047904;28;20077;-60
2023/10/18 02:44:28;;;;;;;144.13;47.07;;;;;;;;;;5056146;28;20091;-60
2023/10/18 02:46:58;;;;;;;176.23;49.97;;;;;;;;;;5064727;28;20751;-60
2023/10/18 02:49:27;;;;;;;133.03;44.50;;;;;;;;;;5068493;28;20053;-60
2023/10/18 02:51:53;;;;;;;143.80;46.10;;;;;;;;;;5066733;28;20049;-60
2023/10/18 02:54:23;;;;;;;146.70;46.37;;;;;;;;;;5067918;28;20064;-60
2023/10/18 02:56:53;;;;;;;176.03;51.00;;;;;;;;;;5066062;28;20045;-60
2023/10/18 02:59:24;;;;;;;145.70;46.13;;;;;;;;;;5066896;28;20084;-60
2023/10/18 03:01:55;;;;;;;143.27;46.00;;;;;;;;;;5065621;28;20189;-60
2023/10/18 03:04:22;;;;;;;125.83;44.37;;;;;;;;;;5048234;28;20057;-60
2023/10/18 03:06:50;;;;;;;139.67;46.13;;;;;;;;;;5047822;28;20124;-60
2023/10/18 03:12:02;;;;;;;146.07;47.37;;;;;;;;;;5047887;28;20099;-60
2023/10/18 03:14:41;;;;;;;141.00;43.87;;;;;;;;;;5047605;28;20051;-59
2023/10/18 03:17:21;;;;;;;117.27;42.53;;;;;;;;;;5066330;28;20094;-60
2023/10/18 03:19:50;;;;;;;114.63;42.27;;;;;;;;;;5051749;28;20049;-60
2023/10/18 03:22:19;;;;;;;159.10;50.47;;;;;;;;;;5051373;28;20044;-60
2023/10/18 03:24:50;;;;;;;142.83;48.40;;;;;;;;;;5051008;28;20041;-60
2023/10/18 03:27:17;;;;;;;139.00;46.90;;;;;;;;;;5051346;28;20518;-60
2023/10/18 03:29:45;;;;;;;137.70;47.60;;;;;;;;;;5051380;28;20169;-60
2023/10/18 03:32:19;;;;;;;142.83;49.30;;;;;;;;;;5050913;28;20064;-60
2023/10/18 03:34:45;;;;;;;;;;;;;;;;;;5051932;28;20087;-60
2023/10/18 03:37:26;;;;;;;130.77;45.27;;;;;;;;;;5050960;28;20006;-60
2023/10/18 03:39:53;;;;;;;135.83;45.67;;;;;;;;;;5051094;28;20049;-60
2023/10/18 03:42:31;;;;;;;149.43;49.53;;;;;;;;;;5051028;28;21976;-60
2023/10/18 03:44:58;;;;;;;169.63;50.60;;;;;;;;;;5051354;28;20052;-60
2023/10/18 03:47:24;;;;;;;107.43;41.83;;;;;;;;;;5050394;28;20194;-60
2023/10/18 03:49:53;;;;;;;149.03;46.47;;;;;;;;;;5051057;28;20132;-60
2023/10/18 03:52:21;;;;;;;134.77;46.17;;;;;;;;;;5050835;28;20071;-60
2023/10/18 03:55:04;;;;;;;140.73;45.87;;;;;;;;;;5050902;28;20053;-60
2023/10/18 03:57:37;;;;;;;112.03;41.03;;;;;;;;;;5051012;28;20480;-60
2023/10/18 04:00:28;;;;;;;113.40;41.17;;;;;;;;;;5050296;28;20055;-60
2023/10/18 04:02:59;;;;;;;146.53;48.10;;;;;;;;;;5050562;28;20052;-60
2023/10/18 04:05:44;;;;;;;151.33;51.40;;;;;;;;;;5050870;28;20045;-60
2023/10/18 04:08:14;;;;;;;93.50;39.33;;;;;;;;;;5051086;28;20495;-60
2023/10/18 04:10:43;;;;;;;89.97;40.60;;;;;;;;;;5050913;28;20052;-60
2023/10/18 04:13:12;;;;;;;122.37;44.40;;;;;;;;;;5050939;28;20052;-60
2023/10/18 04:15:45;;;;;;;117.27;43.80;;;;;;;;;;5070640;28;20494;-60
2023/10/18 04:18:12;;;;;;;122.93;45.97;;;;;;;;;;5070359;28;20514;-60
2023/10/18 04:20:48;;;;;;;103.60;40.17;;;;;;;;;;5070731;28;20044;-60
2023/10/18 04:23:21;;;;;;;131.43;44.80;;;;;;;;;;5070110;28;20123;-60
2023/10/18 04:26:10;;;;;;;121.33;44.87;;;;;;;;;;5070326;28;20052;-63
2023/10/18 04:28:38;;;;;;;109.03;38.87;;;;;;;;;;5069453;28;20745;-68
2023/10/18 04:31:08;;;;;;;119.50;43.20;;;;;;;;;;5070143;28;20534;-61
2023/10/18 04:33:35;;;;;;;119.00;43.40;;;;;;;;;;5067896;28;20055;-60
2023/10/18 04:36:11;;;;;;;118.80;43.43;;;;;;;;;;5050130;28;20059;-60
2023/10/18 04:38:42;;;;;;;88.90;37.43;;;;;;;;;;5050143;28;20057;-60
2023/10/18 04:41:10;;;;;;;102.53;40.67;;;;;;;;;;5049840;28;20056;-60
2023/10/18 04:43:36;;;;;;;115.43;43.03;;;;;;;;;;5054537;28;20048;-60
2023/10/18 04:51:27;;;;;;;133.47;45.73;;;;;;;;;;5049804;28;20044;-60
2023/10/18 04:53:54;;;;;;;104.73;43.13;;;;;;;;;;5050239;28;20131;-60
2023/10/18 04:56:24;;;;;;;103.47;40.27;;;;;;;;;;5049484;28;20487;-60
2023/10/18 04:58:50;;;;;;;113.37;42.07;;;;;;;;;;5049991;28;20045;-60
2023/10/18 05:01:16;;;;;;;113.13;42.40;;;;;;;;;;5049673;28;20041;-60
2023/10/18 05:03:44;;;;;;;138.17;45.87;;;;;;;;;;5054028;28;20565;-60
2023/10/18 05:06:13;;;;;;;110.60;43.30;;;;;;;;;;5059405;28;20057;-60
2023/10/18 05:08:42;;;;;;;101.00;42.23;;;;;;;;;;5069113;28;20083;-60
2023/10/18 05:11:23;;;;;;;90.03;39.27;;;;;;;;;;5062676;28;20044;-60
2023/10/18 05:13:50;;;;;;;114.60;43.23;;;;;;;;;;5065931;28;20041;-60
2023/10/18 05:16:16;;;;;;;98.93;41.40;;;;;;;;;;5066391;28;20071;-60
2023/10/18 05:18:46;;;;;;;96.23;43.60;;;;;;;;;;5049570;28;20045;-60
2023/10/18 05:21:20;;;;;;;93.07;39.57;;;;;;;;;;5048749;28;20045;-60
2023/10/18 05:23:46;;;;;;;120.20;44.27;;;;;;;;;;5049287;28;20053;-60
2023/10/18 05:26:18;;;;;;;106.50;44.03;;;;;;;;;;5049078;28;20079;-60
2023/10/18 05:29:00;;;;;;;112.40;41.87;;;;;;;;;;5050549;28;20041;-60
2023/10/18 05:31:44;;;;;;;98.17;39.83;;;;;;;;;;5063069;28;20040;-60
2023/10/18 05:36:54;;;;;;;109.93;42.97;;;;;;;;;;5048820;28;20045;-60
2023/10/18 05:42:13;;;;;;;119.17;47.17;;;;;;;;;;5049087;28;20143;-60
2023/10/18 05:44:41;;;;;;;124.70;47.27;;;;;;;;;;5049334;28;20045;-60
2023/10/18 05:47:08;;;;;;;76.30;38.27;;;;;;;;;;5048768;28;20049;-60
2023/10/18 05:49:41;;;;;;;132.63;47.27;;;;;;;;;;5049037;28;20131;-60
2023/10/18 05:54:34;;;;;;;106.50;47.63;;;;;;;;;;5050273;28;20052;-60
2023/10/18 05:57:00;;;;;;;119.43;44.33;;;;;;;;;;5068549;28;20098;-60
2023/10/18 05:59:33;;;;;;;88.07;40.43;;;;;;;;;;5069020;28;20044;-60
2023/10/18 06:02:23;;;;;;;80.40;38.97;;;;;;;;;;5068344;28;20419;-60
2023/10/18 06:04:51;;;;;;;100.50;43.67;;;;;;;;;;5068817;28;20136;-60
2023/10/18 06:07:22;;;;;;;77.20;38.87;;;;;;;;;;5059666;28;20454;-60
2023/10/18 06:09:58;;;;;;;106.30;43.00;;;;;;;;;;5066274;28;20499;-60
2023/10/18 06:12:27;;;;;;;107.67;42.67;;;;;;;;;;5068201;28;20486;-60
2023/10/18 06:14:53;;;;;;;87.80;39.00;;;;;;;;;;5067367;28;20056;-60
2023/10/18 06:17:22;;;;;;;105.20;42.07;;;;;;;;;;5067688;28;20052;-60
2023/10/18 06:19:50;;;;;;;83.27;36.03;;;;;;;;;;5068541;28;20053;-60
2023/10/18 06:22:28;;;;;;;90.30;37.63;;;;;;;;;;5067375;28;20631;-60
2023/10/18 06:24:57;;;;;;;84.93;39.33;;;;;;;;;;5068107;28;20051;-60
2023/10/18 06:27:23;;;;;;;69.90;34.47;;;;;;;;;;5068095;28;20041;-60
2023/10/18 06:29:53;;;;;;;93.27;41.43;;;;;;;;;;5056425;28;20037;-60
2023/10/18 06:32:22;;;;;;;67.23;35.17;;;;;;;;;;5047885;28;20053;-60
2023/10/18 06:34:55;;;;;;;67.93;32.03;;;;;;;;;;5055224;28;20048;-60
2023/10/18 06:37:41;;;;;;;89.17;37.60;;;;;;;;;;5068219;28;20588;-60
2023/10/18 06:40:20;;;;;;;92.80;39.50;;;;;;;;;;5067910;28;20057;-60
2023/10/18 06:42:46;;;;;;;83.53;38.20;;;;;;;;;;5055233;28;21095;-60
2023/10/18 06:45:15;;;;;;;77.53;35.90;;;;;;;;;;5051718;28;20040;-60
2023/10/18 06:47:44;;;;;;;83.33;37.43;;;;;;;;;;5067852;28;20194;-60
2023/10/18 06:50:11;;;;;;;74.80;34.07;;;;;;;;;;5055709;28;20502;-60
2023/10/18 06:52:44;;;;;;;83.37;34.73;;;;;;;;;;5067617;28;20568;-60
2023/10/18 06:55:15;;;;;;;60.15;31.65;;;;;;;;;;5070440;28;20537;-60
2023/10/18 06:57:42;;;;;;;62.03;34.00;;;;;;;;;;5071264;28;20502;-60
2023/10/18 07:00:12;;;;;;;71.27;34.27;;;;;;;;;;5071201;28;20052;-60
2023/10/18 07:02:38;;;;;;;74.23;34.67;;;;;;;;;;5070490;28;20226;-60
2023/10/18 07:05:05;;;;;;;75.53;36.53;;;;;;;;;;5071075;28;20045;-60
2023/10/18 07:07:31;;;;;;;85.77;38.83;;;;;;;;;;5071053;28;20072;-60
2023/10/18 07:09:58;;;;;;;71.37;34.73;;;;;;;;;;5071677;28;20463;-60
2023/10/18 07:12:26;;;;;;;65.30;30.87;;;;;;;;;;5069638;28;20086;-60
2023/10/18 07:14:53;;;;;;;74.57;36.40;;;;;;;;;;5070871;28;20464;-60
2023/10/18 07:17:23;;;;;;;64.23;33.40;;;;;;;;;;5071132;28;20098;-60
2023/10/18 07:19:49;;;;;;;69.10;36.27;;;;;;;;;;5070327;28;20426;-60
2023/10/18 07:22:20;;;;;;;54.07;28.97;;;;;;;;;;5070909;28;20044;-60
2023/10/18 07:24:47;;;;;;;47.20;28.33;;;;;;;;;;5071085;28;20048;-60
2023/10/18 07:27:16;;;;;;;56.63;30.13;;;;;;;;;;5070047;28;20166;-60
2023/10/18 07:29:49;;;;;;;54.77;29.80;;;;;;;;;;5070953;28;20048;-60
2023/10/18 07:32:20;;;;;;;56.78;32.75;;;;;;;;;;5070553;28;20106;-60
2023/10/18 07:34:48;;;;;;;58.63;31.23;;;;;;;;;;5070855;28;20051;-60
2023/10/18 07:37:24;;;;;;;54.97;31.43;;;;;;;;;;5070777;28;20066;-60
2023/10/18 07:40:10;;;;;;;48.10;28.30;;;;;;;;;;5071071;28;20605;-60
2023/10/18 07:42:41;;;;;;;48.77;26.87;;;;;;;;;;5070114;28;20083;-60
2023/10/18 07:45:08;;;;;;;55.13;29.10;;;;;;;;;;5070653;28;20592;-60
2023/10/18 07:47:37;;;;;;;42.00;24.83;;;;;;;;;;5070908;28;20049;-61
2023/10/18 07:50:34;;;;;;;42.33;25.83;;;;;;;;;;5070956;28;20040;-59
2023/10/18 07:52:55;;;;;;;44.30;25.47;;;;;;;;;;5070242;28;20054;-59
2023/10/18 07:55:24;;;;;;;40.67;24.93;;;;;;;;;;5070491;28;20051;-60
2023/10/18 07:57:51;;;;;;;46.50;26.50;;;;;;;;;;5070758;28;20028;-60
2023/10/18 08:00:26;;;;;;;38.27;24.40;;;;;;;;;;5070438;28;20863;-60
2023/10/18 08:02:52;;;;;;;40.27;24.00;;;;;;;;;;5069369;28;20052;-60
2023/10/18 08:05:23;;;;;;;36.23;22.53;;;;;;;;;;5069822;28;20048;-63
2023/10/18 08:07:50;;;;;;;40.13;24.67;;;;;;;;;;5070508;28;20128;-67
2023/10/18 08:10:19;;;;;;;40.37;24.27;;;;;;;;;;5070365;28;20044;-65
2023/10/18 08:12:48;;;;;;;33.13;21.77;;;;;;;;;;5070145;28;20049;-61
2023/10/18 08:15:16;;;;;;;35.00;23.43;;;;;;;;;;5070035;28;20544;-61
2023/10/18 08:20:43;;;;;;;35.43;21.37;;;;;;;;;;5069884;28;20079;-61
2023/10/18 08:25:51;;;;;;;29.07;19.70;;;;;;;;;;5070132;28;20095;-61
2023/10/18 08:28:17;;;;;;;30.63;19.43;;;;;;;;;;5069613;28;20056;-60
2023/10/18 08:33:10;;;;;;;24.70;17.80;;;;;;;;;;5069620;28;20512;-61
2023/10/18 08:35:36;;;;;;;26.20;16.77;;;;;;;;;;5069828;28;20543;-61
2023/10/18 08:38:02;;;;;;;23.67;17.37;;;;;;;;;;5069659;28;20143;-61
2023/10/18 08:43:06;;;;;;;22.38;16.17;;;;;;;;;;5069561;28;20530;-61
2023/10/18 08:45:36;;;;;;;25.60;17.63;;;;;;;;;;5069215;28;20063;-61
2023/10/18 08:48:11;;;;;;;24.30;15.47;;;;;;;;;;5069466;28;20076;-61
2023/10/18 08:50:41;;;;;;;19.63;14.80;;;;;;;;;;5069014;28;20088;-61
2023/10/18 08:53:07;;;;;;;18.33;13.73;;;;;;;;;;5069594;28;20040;-62
2023/10/18 08:55:45;;;;;;;21.37;14.07;;;;;;;;;;5069111;28;20041;-61
2023/10/18 08:58:17;;;;;;;21.63;12.97;;;;;;;;;;5069356;28;20044;-62
2023/10/18 09:03:17;;;;;;;17.40;12.57;;;;;;;;;;5069261;28;20460;-61
2023/10/18 09:05:43;;;;;;;14.53;11.43;;;;;;;;;;5069380;28;20036;-60
2023/10/18 09:08:14;;;;;;;18.23;11.47;;;;;;;;;;5068960;28;20079;-60
2023/10/18 09:18:25;;;;;;;15.33;10.27;;;;;;;;;;5068456;28;20101;-62
2023/10/18 09:20:55;;;;;;;14.83;10.27;;;;;;;;;;5068950;28;20132;-61
2023/10/18 09:23:21;;;;;;;13.10;9.50;;;;;;;;;;5068519;28;20117;-61
2023/10/18 09:25:51;;;;;;;16.13;8.93;;;;;;;;;;5067043;28;20086;-60
2023/10/18 09:30:54;;;;;;;13.60;10.35;;;;;;;;;;5068857;28;20056;-61
2023/10/18 09:33:20;;;;;;;12.47;8.70;;;;;;;;;;5068630;28;20473;-61
2023/10/18 09:35:49;;;;;;;12.67;8.83;;;;;;;;;;5068173;28;20095;-62
2023/10/18 09:38:21;;;;;;;11.27;8.43;;;;;;;;;;5068594;28;20056;-62
2023/10/18 09:40:48;;;;;;;13.87;10.10;;;;;;;;;;5068427;28;20140;-62
2023/10/18 09:43:14;;;;;;;11.83;8.07;;;;;;;;;;5067964;28;20555;-62
2023/10/18 09:45:41;;;;;;;15.73;9.43;;;;;;;;;;5068754;28;20126;-60
2023/10/18 09:48:11;;;;;;;11.27;7.63;;;;;;;;;;5067153;28;20048;-60
2023/10/18 09:50:41;;;;;;;15.97;10.33;;;;;;;;;;5068367;28;20055;-61
2023/10/18 09:53:08;;;;;;;13.33;8.10;;;;;;;;;;5068356;28;20048;-60
2023/10/18 09:55:34;;;;;;;12.90;8.30;;;;;;;;;;5068318;28;21030;-61
2023/10/18 09:58:06;;;;;;;12.57;8.77;;;;;;;;;;5068584;28;20047;-60
2023/10/18 10:00:42;;;;;;;10.63;8.23;;;;;;;;;;5068533;28;20105;-60
2023/10/18 10:03:12;;;;;;;11.20;8.07;;;;;;;;;;5067360;28;20060;-61
2023/10/18 10:05:43;;;;;;;10.57;8.17;;;;;;;;;;5068706;28;20719;-60
2023/10/18 10:08:09;;;;;;;11.63;8.53;;;;;;;;;;5067762;28;20049;-61
2023/10/18 10:10:45;;;;;;;12.67;8.10;;;;;;;;;;5068562;28;20040;-60
2023/10/18 10:13:18;;;;;;;11.70;7.73;;;;;;;;;;5067849;28;20084;-61
2023/10/18 10:15:46;;;;;;;11.93;8.55;;;;;;;;;;5060385;28;20041;-60
2023/10/18 10:18:13;;;;;;;10.50;8.17;;;;;;;;;;5046221;28;20041;-60
2023/10/18 10:20:41;;;;;;;12.60;8.07;;;;;;;;;;5046704;28;20182;-60
2023/10/18 10:23:14;;;;;;;9.50;7.50;;;;;;;;;;5047853;28;20072;-60
2023/10/18 10:25:48;;;;;;;;;;;;;;;;;;5048841;28;20529;-60
2023/10/18 10:28:14;;;;;;;;;;;;;;;;;;5051969;28;20453;-60
2023/10/18 10:30:44;;;;;;;10.90;8.23;;;;;;;;;;5051576;28;19975;-60
2023/10/18 10:33:13;;;;;;;12.67;8.47;;;;;;;;;;5051884;28;20051;-60
2023/10/18 10:35:46;;;;;;;11.23;8.00;;;;;;;;;;5052448;28;20052;-60
2023/10/18 10:38:21;;;;;;;;;;;;;;;;;;5052192;28;20411;-60
2023/10/18 10:40:48;;;;;;;13.47;9.00;;;;;;;;;;5051477;28;20375;-60
2023/10/18 10:43:18;;;;;;;10.00;7.90;;;;;;;;;;5050941;28;20045;-60
2023/10/18 10:48:17;;;;;;;9.87;7.70;;;;;;;;;;5051374;28;20391;-60
2023/10/18 10:50:53;;;;;;;11.37;7.37;;;;;;;;;;5051961;28;20057;-60
2023/10/18 10:53:32;;;;;;;11.03;8.07;;;;;;;;;;5050817;28;20050;-61
2023/10/18 10:56:03;;;;;;;10.53;7.73;;;;;;;;;;5051858;28;20077;-60
2023/10/18 10:58:38;;;;;;;9.13;7.47;;;;;;;;;;5051862;28;20097;-61
2023/10/18 11:01:04;;;;;;;10.77;7.60;;;;;;;;;;5051614;28;20151;-61
2023/10/18 11:03:32;;;;;;;9.23;7.17;;;;;;;;;;5051524;28;20200;-62
2023/10/18 11:05:58;;;;;;;11.37;7.37;;;;;;;;;;5051064;28;20423;-61
2023/10/18 11:08:25;;;;;;;11.60;7.30;;;;;;;;;;5051504;28;20041;-61
2023/10/18 11:10:51;;;;;;;9.37;7.17;;;;;;;;;;5051343;28;20045;-61
2023/10/18 11:13:22;;;;;;;11.40;7.50;;;;;;;;;;5051089;28;20756;-61
2023/10/18 11:15:50;;;;;;;9.87;7.30;;;;;;;;;;5051466;28;20045;-61
2023/10/18 11:18:27;;;;;;;9.57;7.17;;;;;;;;;;5050724;28;20049;-61
2023/10/18 11:23:50;;;;;;;9.67;7.30;;;;;;;;;;5042365;28;20112;-61
2023/10/18 11:26:24;;;;;;;11.83;7.37;;;;;;;;;;5050638;28;20060;-61
2023/10/18 11:28:50;;;;;;;9.63;8.17;;;;;;;;;;5051190;28;20098;-61
2023/10/18 11:31:16;;;;;;;8.67;7.00;;;;;;;;;;5050202;28;20056;-61
2023/10/18 11:33:54;;;;;;;11.13;7.27;;;;;;;;;;5050882;28;20084;-61
2023/10/18 11:36:20;;;;;;;10.20;6.63;;;;;;;;;;5050123;28;20491;-61
2023/10/18 11:41:35;;;;;;;10.93;6.50;;;;;;;;;;5051768;28;20048;-61
2023/10/18 11:44:06;;;;;;;21.67;8.60;;;;;;;;;;5050394;28;20050;-61
2023/10/18 11:46:46;;;;;;;10.40;7.10;;;;;;;;;;5052299;28;20069;-61
2023/10/18 11:49:12;;;;;;;9.10;6.80;;;;;;;;;;5050798;28;20056;-61
2023/10/18 11:51:45;;;;;;;9.40;7.37;;;;;;;;;;5050244;28;20049;-61
2023/10/18 11:54:14;;;;;;;10.68;7.10;;;;;;;;;;5050729;28;20045;-61
2023/10/18 11:56:40;;;;;;;8.47;6.90;;;;;;;;;;5051528;28;20051;-61
2023/10/18 11:59:06;;;;;;;10.67;6.70;;;;;;;;;;5050875;28;20045;-60
2023/10/18 12:01:37;;;;;;;10.40;6.73;;;;;;;;;;5061017;28;20033;-61
2023/10/18 12:04:06;;;;;;;10.30;6.60;;;;;;;;;;5061220;28;20048;-61
2023/10/18 12:06:32;;;;;;;9.37;6.60;;;;;;;;;;5058035;28;20491;-61
2023/10/18 12:11:40;;;;;;;9.70;6.40;;;;;;;;;;5054427;28;20146;-61
2023/10/18 12:14:08;;;;;;;9.90;6.67;;;;;;;;;;5063488;28;20044;-60
2023/10/18 12:16:34;;;;;;;7.77;5.97;;;;;;;;;;5065028;28;20457;-61
2023/10/18 12:19:00;;;;;;;13.20;6.83;;;;;;;;;;5070225;28;20135;-61
2023/10/18 12:21:29;;;;;;;11.17;6.77;;;;;;;;;;5062017;28;20483;-62
2023/10/18 12:23:58;;;;;;;8.23;5.70;;;;;;;;;;5069173;28;20052;-61
2023/10/18 12:26:24;;;;;;;10.90;5.77;;;;;;;;;;5069538;28;20087;-61
2023/10/18 12:28:56;;;;;;;8.27;6.47;;;;;;;;;;5068054;28;20059;-62
2023/10/18 12:31:28;;;;;;;7.80;6.60;;;;;;;;;;5064455;28;20134;-61
2023/10/18 12:34:00;;;;;;;7.50;5.40;;;;;;;;;;5068093;28;20060;-61
2023/10/18 12:36:33;;;;;;;9.67;5.97;;;;;;;;;;5069194;28;20049;-61
2023/10/18 12:38:59;;;;;;;10.32;5.72;;;;;;;;;;5059873;28;20117;-60
2023/10/18 12:41:31;;;;;;;8.43;6.30;;;;;;;;;;5055613;28;20162;-61
2023/10/18 12:43:57;;;;;;;7.10;5.60;;;;;;;;;;5052495;28;20055;-61
2023/10/18 12:46:23;;;;;;;8.37;5.50;;;;;;;;;;5069885;28;20426;-61
2023/10/18 12:48:49;;;;;;;7.30;5.73;;;;;;;;;;5068253;28;20037;-61
2023/10/18 12:51:17;;;;;;;9.20;5.60;;;;;;;;;;5067749;28;20041;-62
2023/10/18 12:53:47;;;;;;;8.70;5.70;;;;;;;;;;5067383;28;20040;-60
2023/10/18 12:58:57;;;;;;;8.93;5.80;;;;;;;;;;5068618;28;20117;-61
2023/10/18 13:02:02;;;;;;;7.87;5.33;;;;;;;;;;5067484;28;20131;-61
2023/10/18 13:04:19;;;;;;;9.67;5.70;;;;;;;;;;5065028;28;20410;-61
2023/10/18 13:06:45;;;;;;;6.33;5.07;;;;;;;;;;5068955;28;20398;-60
2023/10/18 13:09:15;;;;;;;8.13;5.60;;;;;;;;;;5052009;28;20041;-61
2023/10/18 13:11:46;;;;;;;8.90;5.50;;;;;;;;;;5066778;28;20869;-61
2023/10/18 13:14:23;;;;;;;6.90;5.40;;;;;;;;;;5069284;28;20045;-61
2023/10/18 13:16:49;;;;;;;7.77;5.30;;;;;;;;;;5067715;28;20049;-61
2023/10/18 13:19:15;;;;;;;8.57;5.70;;;;;;;;;;5067114;28;20054;-61
2023/10/18 13:21:43;;;;;;;7.47;5.33;;;;;;;;;;5067660;28;20048;-60
2023/10/18 13:24:28;;;;;;;8.67;5.70;;;;;;;;;;5064557;28;20437;-62
2023/10/18 13:26:59;;;;;;;6.30;5.47;;;;;;;;;;5057984;28;20124;-62
2023/10/18 13:31:52;;;;;;;9.23;5.27;;;;;;;;;;5066273;28;20060;-62
2023/10/18 13:34:21;;;;;;;6.77;5.13;;;;;;;;;;5067410;28;20117;-60
2023/10/18 13:36:51;;;;;;;9.07;6.00;;;;;;;;;;5066819;28;20056;-60
2023/10/18 13:39:17;;;;;;;11.57;5.87;;;;;;;;;;5068667;28;20102;-61
2023/10/18 13:41:47;;;;;;;8.50;6.30;;;;;;;;;;5067907;28;20572;-61
2023/10/18 13:44:19;;;;;;;11.77;6.63;;;;;;;;;;5061574;28;20517;-62
2023/10/18 13:46:50;;;;;;;10.35;6.15;;;;;;;;;;5058415;28;20070;-62
2023/10/18 13:49:17;;;;;;;7.87;4.90;;;;;;;;;;5067397;28;20058;-62
2023/10/18 13:51:43;;;;;;;8.63;5.57;;;;;;;;;;5067587;28;20392;-61
2023/10/18 13:54:09;;;;;;;7.57;5.90;;;;;;;;;;5067631;28;20039;-61
2023/10/18 13:56:35;;;;;;;9.23;6.20;;;;;;;;;;5068209;28;20132;-61
2023/10/18 13:59:02;;;;;;;8.03;6.10;;;;;;;;;;5065521;28;20426;-61
2023/10/18 14:01:28;;;;;;;6.83;5.60;;;;;;;;;;5061496;28;20036;-61
2023/10/18 14:03:55;;;;;;;11.40;6.40;;;;;;;;;;5068163;28;20076;-61
2023/10/18 14:06:21;;;;;;;8.53;6.43;;;;;;;;;;5067256;28;20120;-61
2023/10/18 14:08:47;;;;;;;9.17;6.33;;;;;;;;;;5066455;28;20040;-61
2023/10/18 14:11:14;;;;;;;9.10;6.03;;;;;;;;;;5061786;28;20048;-62
2023/10/18 14:13:43;;;;;;;9.23;5.73;;;;;;;;;;5064735;28;20067;-61
2023/10/18 14:16:12;;;;;;;8.30;6.30;;;;;;;;;;5067271;28;20040;-62
2023/10/18 14:18:40;;;;;;;6.60;5.83;;;;;;;;;;5067264;28;20044;-61
2023/10/18 14:21:12;;;;;;;9.20;6.13;;;;;;;;;;5062015;28;20048;-61
2023/10/18 14:23:38;;;;;;;7.53;5.97;;;;;;;;;;5052113;28;20416;-61
2023/10/18 14:26:04;;;;;;;8.30;5.77;;;;;;;;;;5053539;28;20037;-61
2023/10/18 14:28:32;;;;;;;9.77;6.23;;;;;;;;;;5050810;28;20048;-61
2023/10/18 14:30:59;;;;;;;9.40;6.43;;;;;;;;;;5048175;28;20041;-61
2023/10/18 14:33:28;;;;;;;11.53;6.27;;;;;;;;;;5063254;28;20078;-61
2023/10/18 14:35:54;;;;;;;8.67;5.40;;;;;;;;;;5058914;28;20041;-61
2023/10/18 14:38:21;;;;;;;9.07;6.43;;;;;;;;;;5063649;28;20052;-61
2023/10/18 14:40:46;;;;;;;7.63;6.37;;;;;;;;;;5052516;28;20103;-61
2023/10/18 14:43:13;;;;;;;12.17;7.00;;;;;;;;;;5061207;28;20040;-61
2023/10/18 14:45:42;;;;;;;8.57;6.10;;;;;;;;;;5067536;28;20043;-61
2023/10/18 14:48:08;;;;;;;10.00;7.00;;;;;;;;;;5054914;28;20045;-61
2023/10/18 14:50:35;;;;;;;8.97;5.83;;;;;;;;;;5067391;28;20083;-61
2023/10/18 14:53:01;;;;;;;7.93;5.80;;;;;;;;;;5060451;28;20052;-61
2023/10/18 14:55:30;;;;;;;10.07;6.77;;;;;;;;;;5047891;28;20053;-61
2023/10/18 14:57:56;;;;;;;9.70;5.97;;;;;;;;;;5068068;28;20048;-61
2023/10/18 15:00:22;;;;;;;9.10;6.47;;;;;;;;;;5066549;28;20048;-61
2023/10/18 15:02:50;;;;;;;10.93;7.23;;;;;;;;;;5067369;28;20048;-61
2023/10/18 15:05:17;;;;;;;10.07;6.57;;;;;;;;;;5066865;28;20164;-61
2023/10/18 15:07:44;;;;;;;10.27;7.57;;;;;;;;;;5068044;28;20056;-61
2023/10/18 15:10:10;;;;;;;13.33;7.40;;;;;;;;;;5066772;28;20794;-61
2023/10/18 15:12:36;;;;;;;12.60;7.43;;;;;;;;;;5069467;28;20053;-61
2023/10/18 15:15:03;;;;;;;12.00;7.50;;;;;;;;;;5070656;28;20048;-61
2023/10/18 15:17:29;;;;;;;13.50;7.00;;;;;;;;;;5069250;28;20982;-61
2023/10/18 15:19:55;;;;;;;8.67;6.50;;;;;;;;;;5065592;28;20440;-60
2023/10/18 15:22:21;;;;;;;12.80;8.00;;;;;;;;;;5069438;28;20137;-60
2023/10/18 15:24:52;;;;;;;11.67;6.60;;;;;;;;;;5070348;28;20045;-61
2023/10/18 15:27:18;;;;;;;12.30;7.37;;;;;;;;;;5069438;28;20055;-64
2023/10/18 15:29:44;;;;;;;11.20;7.17;;;;;;;;;;5068879;28;20041;-64
2023/10/18 15:32:14;;;;;;;10.07;7.23;;;;;;;;;;5071021;28;20410;-61